createdAt,value
2023-05-16T00:00:45.926Z,8.100
2023-05-16T00:01:36.031Z,7.300
2023-05-16T00:02:31.766Z,7.500
2023-05-16T00:03:21.183Z,8.100
2023-05-16T00:04:23.643Z,7.750
2023-05-16T00:05:38.962Z,7.200
2023-05-16T00:06:24.738Z,8.100
2023-05-16T00:07:46.779Z,8.200
2023-05-16T00:08:41.085Z,8.300
2023-05-16T00:09:32.155Z,7.600
2023-05-16T00:10:26.985Z,8.000
2023-05-16T00:11:27.007Z,8.400
2023-05-16T00:12:19.939Z,8.850
2023-05-16T00:13:29.122Z,8.550
2023-05-16T00:14:51.810Z,8.400
2023-05-16T00:15:49.742Z,8.300
2023-05-16T00:16:33.062Z,8.300
2023-05-16T00:17:23.854Z,9.000
2023-05-16T00:18:22.244Z,9.000
2023-05-16T00:19:25.093Z,8.550
2023-05-16T00:21:23.797Z,8.000
2023-05-16T00:22:37.873Z,8.000
2023-05-16T00:23:43.853Z,8.600
2023-05-16T00:24:26.757Z,8.800
2023-05-16T00:25:26.306Z,8.000
2023-05-16T00:26:20.258Z,7.700
2023-05-16T00:27:22.775Z,8.400
2023-05-16T00:28:44.546Z,9.000
2023-05-16T00:29:56.770Z,9.100
2023-05-16T00:30:45.696Z,8.500
2023-05-16T00:31:29.735Z,8.300
2023-05-16T00:32:20.534Z,8.200
2023-05-16T00:33:24.649Z,8.000
2023-05-16T00:34:24.579Z,8.300
2023-05-16T00:35:23.197Z,9.500
2023-05-16T00:36:58.652Z,9.350
2023-05-16T00:37:50.628Z,9.600
2023-05-16T00:38:27.300Z,9.700
2023-05-16T00:39:35.662Z,9.300
2023-05-16T00:40:27.862Z,9.700
2023-05-16T00:41:22.844Z,8.700
2023-05-16T00:42:21.910Z,8.850
2023-05-16T00:44:33.157Z,8.650
2023-05-16T00:45:47.672Z,9.600
2023-05-16T00:46:22.389Z,9.800
2023-05-16T00:47:33.684Z,8.950
2023-05-16T00:48:25.383Z,8.700
2023-05-16T00:49:26.075Z,9.600
2023-05-16T00:50:36.564Z,9.100
2023-05-16T00:51:51.642Z,8.950
2023-05-16T00:52:39.148Z,9.000
2023-05-16T00:53:26.214Z,9.300
2023-05-16T00:54:37.684Z,9.400
2023-05-16T00:55:30.330Z,9.350
2023-05-16T00:56:24.581Z,10.000
2023-05-16T00:57:23.106Z,8.600
2023-05-16T00:58:54.607Z,9.150
2023-05-16T00:59:55.546Z,9.700
2023-05-16T01:00:23.056Z,10.700
2023-05-16T01:09:48.103Z,9.300
2023-05-16T01:10:40.636Z,9.200
2023-05-16T01:11:26.993Z,9.300
2023-05-16T01:12:27.258Z,9.700
2023-05-16T01:17:23.967Z,9.700
2023-05-16T01:18:29.744Z,9.900
2023-05-16T01:19:24.633Z,9.100
2023-05-16T01:21:02.536Z,9.300
2023-05-16T01:22:04.154Z,9.900
2023-05-16T01:22:55.680Z,9.600
2023-05-16T01:23:29.337Z,9.600
2023-05-16T01:24:41.533Z,9.600
2023-05-16T01:25:33.326Z,10.000
2023-05-16T01:26:26.243Z,9.600
2023-05-16T01:27:25.630Z,9.900
2023-05-16T01:29:06.829Z,9.500
2023-05-16T01:29:31.820Z,9.750
2023-05-16T01:30:46.520Z,9.300
2023-05-16T01:31:51.548Z,9.300
2023-05-16T01:32:38.127Z,9.700
2023-05-16T01:33:29.804Z,10.600
2023-05-16T01:34:23.786Z,9.800
2023-05-16T01:35:21.621Z,9.250
2023-05-16T01:36:28.776Z,10.300
2023-05-16T01:37:55.535Z,10.100
2023-05-16T01:38:51.629Z,9.700
2023-05-16T01:39:38.560Z,9.700
2023-05-16T01:40:30.182Z,9.100
2023-05-16T01:41:26.913Z,9.900
2023-05-16T01:42:26.559Z,10.250
2023-05-16T01:43:33.468Z,10.400
2023-05-16T01:45:01.242Z,9.400
2023-05-16T01:45:20.644Z,9.900
2023-05-16T01:46:35.547Z,8.100
2023-05-16T01:47:28.485Z,9.100
2023-05-16T01:48:30.442Z,9.000
2023-05-16T01:49:23.028Z,9.150
2023-05-16T01:50:25.155Z,8.600
2023-05-16T01:51:22.363Z,8.700
2023-05-16T01:52:38.416Z,8.300
2023-05-16T01:53:50.448Z,8.000
2023-05-16T01:54:31.408Z,8.200
2023-05-16T01:55:34.520Z,8.600
2023-05-16T01:56:28.044Z,9.100
2023-05-16T01:57:20.629Z,8.900
2023-05-16T01:58:21.360Z,9.500
2023-05-16T02:00:02.807Z,9.500
2023-05-16T02:00:46.026Z,9.700
2023-05-16T02:01:34.565Z,9.100
2023-05-16T02:02:24.894Z,10.000
2023-05-16T02:03:31.847Z,8.500
2023-05-16T02:04:27.205Z,9.000
2023-05-16T02:05:24.640Z,9.800
2023-05-16T02:07:05.391Z,9.200
2023-05-16T02:07:48.688Z,9.400
2023-05-16T02:08:28.423Z,9.300
2023-05-16T02:09:26.166Z,9.600
2023-05-16T02:10:36.216Z,9.400
2023-05-16T02:11:30.824Z,10.150
2023-05-16T02:12:22.210Z,9.200
2023-05-16T02:13:21.098Z,9.100
2023-05-16T02:14:32.684Z,9.700
2023-05-16T02:15:41.077Z,9.400
2023-05-16T02:16:27.498Z,9.600
2023-05-16T02:17:41.992Z,9.650
2023-05-16T02:18:33.326Z,9.900
2023-05-16T02:19:28.041Z,10.000
2023-05-16T02:20:23.263Z,9.700
2023-05-16T02:21:52.718Z,9.800
2023-05-16T02:22:45.695Z,9.750
2023-05-16T02:23:31.203Z,10.400
2023-05-16T02:24:45.231Z,9.400
2023-05-16T02:25:31.249Z,9.450
2023-05-16T02:26:32.888Z,10.100
2023-05-16T02:27:25.377Z,11.000
2023-05-16T02:28:22.185Z,11.600
2023-05-16T02:29:46.436Z,10.750
2023-05-16T02:30:23.137Z,10.900
2023-05-16T02:31:36.246Z,10.450
2023-05-16T02:32:45.768Z,9.700
2023-05-16T02:33:35.943Z,9.600
2023-05-16T02:34:29.831Z,9.600
2023-05-16T02:35:20.257Z,10.900
2023-05-16T02:36:27.136Z,10.300
2023-05-16T02:37:35.312Z,10.300
2023-05-16T02:38:23.149Z,10.200
2023-05-16T02:39:47.212Z,10.200
2023-05-16T02:40:40.023Z,9.900
2023-05-16T02:41:31.977Z,11.200
2023-05-16T02:42:25.276Z,9.400
2023-05-16T02:43:22.916Z,10.300
2023-05-16T02:44:39.136Z,10.300
2023-05-16T02:45:25.142Z,10.600
2023-05-16T02:46:50.029Z,9.800
2023-05-16T02:47:25.323Z,9.600
2023-05-16T02:48:39.023Z,10.000
2023-05-16T02:49:22.038Z,9.800
2023-05-16T02:50:22.009Z,9.400
2023-05-16T02:51:19.625Z,9.500
2023-05-16T02:52:28.232Z,10.100
2023-05-16T02:53:28.766Z,10.250
2023-05-16T02:54:51.934Z,11.000
2023-05-16T02:55:38.188Z,11.000
2023-05-16T02:56:24.995Z,10.700
2023-05-16T02:57:26.485Z,10.300
2023-05-16T02:58:20.848Z,9.850
2023-05-16T02:59:33.421Z,10.800
2023-05-16T03:00:48.170Z,10.950
2023-05-16T03:01:53.995Z,10.700
2023-05-16T03:02:41.022Z,10.200
2023-05-16T03:03:26.111Z,10.100
2023-05-16T03:04:27.116Z,10.750
2023-05-16T03:05:25.540Z,10.750
2023-05-16T03:06:21.264Z,11.000
2023-05-16T03:08:09.501Z,10.450
2023-05-16T03:08:56.942Z,11.300
2023-05-16T03:09:43.948Z,10.200
2023-05-16T03:10:31.945Z,10.600
2023-05-16T03:11:36.979Z,10.600
2023-05-16T03:12:29.753Z,10.700
2023-05-16T03:13:21.914Z,10.400
2023-05-16T03:14:24.209Z,10.800
2023-05-16T03:15:22.027Z,10.900
2023-05-16T03:16:37.033Z,10.550
2023-05-16T03:17:33.998Z,10.500
2023-05-16T03:18:38.915Z,10.200
2023-05-16T03:19:32.601Z,10.200
2023-05-16T03:20:24.642Z,11.200
2023-05-16T03:21:22.078Z,11.300
2023-05-16T03:22:43.530Z,10.500
2023-05-16T03:23:50.561Z,11.250
2023-05-16T03:24:36.825Z,10.300
2023-05-16T03:25:21.816Z,11.100
2023-05-16T03:26:35.862Z,11.100
2023-05-16T03:27:30.768Z,10.750
2023-05-16T03:28:24.266Z,11.100
2023-05-16T03:29:59.745Z,11.100
2023-05-16T03:30:52.400Z,11.450
2023-05-16T03:31:39.859Z,11.600
2023-05-16T03:32:27.722Z,11.800
2023-05-16T03:33:45.491Z,11.400
2023-05-16T03:34:34.851Z,11.250
2023-05-16T03:35:29.186Z,10.400
2023-05-16T03:36:23.483Z,10.350
2023-05-16T03:38:30.788Z,11.450
2023-05-16T03:39:28.326Z,11.500
2023-05-16T03:40:46.355Z,10.400
2023-05-16T03:41:38.751Z,10.000
2023-05-16T03:42:31.250Z,9.800
2023-05-16T03:43:24.609Z,8.800
2023-05-16T03:44:21.130Z,10.700
2023-05-16T03:45:46.397Z,11.350
2023-05-16T03:46:32.933Z,10.600
2023-05-16T03:47:49.729Z,9.300
2023-05-16T03:48:46.383Z,10.500
2023-05-16T03:49:27.316Z,11.500
2023-05-16T03:50:32.764Z,10.300
2023-05-16T03:51:22.636Z,10.200
2023-05-16T03:53:07.667Z,10.550
2023-05-16T03:54:00.630Z,10.400
2023-05-16T03:54:53.804Z,10.700
2023-05-16T03:55:33.859Z,11.100
2023-05-16T03:56:45.830Z,9.700
2023-05-16T03:57:36.652Z,10.900
2023-05-16T03:58:24.516Z,10.500
2023-05-16T03:59:21.550Z,10.500
2023-05-16T04:00:23.713Z,11.000
2023-05-16T04:01:23.921Z,10.500
2023-05-16T04:02:55.229Z,10.300
2023-05-16T04:03:48.412Z,10.950
2023-05-16T04:04:40.574Z,10.900
2023-05-16T04:05:32.866Z,10.100
2023-05-16T04:06:26.427Z,9.700
2023-05-16T04:07:43.806Z,11.000
2023-05-16T04:08:56.226Z,10.900
2023-05-16T04:09:57.700Z,10.450
2023-05-16T04:10:48.459Z,10.600
2023-05-16T04:11:21.433Z,10.500
2023-05-16T04:12:23.751Z,9.900
2023-05-16T04:13:28.694Z,10.600
2023-05-16T04:14:23.145Z,10.400
2023-05-16T04:15:31.502Z,10.550
2023-05-16T04:17:02.650Z,10.850
2023-05-16T04:17:25.752Z,11.100
2023-05-16T04:18:39.615Z,10.800
2023-05-16T04:19:25.323Z,9.800
2023-05-16T04:20:33.464Z,9.700
2023-05-16T04:21:25.818Z,11.050
2023-05-16T04:22:33.960Z,11.300
2023-05-16T04:23:20.735Z,12.400
2023-05-16T04:24:46.385Z,11.100
2023-05-16T04:25:42.346Z,11.400
2023-05-16T04:26:29.672Z,11.000
2023-05-16T04:27:37.085Z,11.000
2023-05-16T04:28:22.071Z,11.250
2023-05-16T04:29:24.422Z,11.300
2023-05-16T04:30:23.148Z,11.100
2023-05-16T04:32:03.377Z,11.000
2023-05-16T04:32:46.360Z,10.300
2023-05-16T04:33:33.005Z,10.000
2023-05-16T04:34:29.313Z,11.000
2023-05-16T04:35:32.099Z,11.300
2023-05-16T04:36:28.259Z,11.400
2023-05-16T04:37:21.956Z,12.100
2023-05-16T04:39:00.165Z,11.400
2023-05-16T04:39:49.031Z,10.800
2023-05-16T04:40:35.152Z,11.300
2023-05-16T04:41:47.389Z,11.500
2023-05-16T04:42:39.218Z,11.900
2023-05-16T04:43:32.248Z,11.200
2023-05-16T04:44:23.941Z,11.400
2023-05-16T04:45:24.882Z,11.700
2023-05-16T04:46:39.111Z,12.450
2023-05-16T04:47:37.899Z,11.500
2023-05-16T04:48:26.194Z,11.700
2023-05-16T04:49:43.452Z,11.250
2023-05-16T04:50:36.459Z,11.000
2023-05-16T04:51:33.153Z,10.900
2023-05-16T04:52:21.903Z,11.200
2023-05-16T04:53:56.121Z,11.300
2023-05-16T04:54:42.020Z,11.200
2023-05-16T04:55:29.501Z,12.000
2023-05-16T04:56:21.865Z,12.400
2023-05-16T04:57:36.744Z,10.550
2023-05-16T04:58:32.972Z,10.900
2023-05-16T04:59:25.931Z,11.000
2023-05-16T05:00:57.968Z,11.000
2023-05-16T05:02:05.268Z,10.200
2023-05-16T05:02:26.387Z,11.200
2023-05-16T05:03:50.889Z,10.900
2023-05-16T05:04:44.903Z,10.200
2023-05-16T05:05:38.038Z,9.900
2023-05-16T05:06:30.863Z,10.400
2023-05-16T05:07:21.942Z,10.300
2023-05-16T05:08:33.608Z,10.950
2023-05-16T05:09:33.121Z,11.200
2023-05-16T05:10:21.876Z,10.450
2023-05-16T05:11:48.469Z,10.500
2023-05-16T05:12:40.478Z,11.100
2023-05-16T05:13:24.450Z,10.400
2023-05-16T05:14:25.424Z,10.400
2023-05-16T05:17:23.580Z,11.250
2023-05-16T05:18:52.835Z,10.000
2023-05-16T05:19:29.778Z,10.200
2023-05-16T05:20:32.688Z,11.100
2023-05-16T05:21:29.821Z,11.800
2023-05-16T05:22:23.261Z,11.700
2023-05-16T05:23:41.322Z,12.200
2023-05-16T05:24:22.126Z,11.100
2023-05-16T05:25:36.305Z,10.100
2023-05-16T05:26:49.557Z,11.400
2023-05-16T05:27:34.157Z,11.600
2023-05-16T05:28:22.558Z,11.500
2023-05-16T05:29:26.864Z,10.700
2023-05-16T05:30:20.496Z,11.050
2023-05-16T05:31:29.111Z,10.200
2023-05-16T05:32:52.783Z,10.750
2023-05-16T05:33:53.569Z,9.500
2023-05-16T05:34:38.303Z,11.300
2023-05-16T05:35:24.000Z,10.200
2023-05-16T05:36:31.118Z,10.400
2023-05-16T05:37:46.364Z,10.850
2023-05-16T05:38:32.713Z,11.000
2023-05-16T05:40:05.491Z,10.450
2023-05-16T05:40:57.352Z,11.100
2023-05-16T05:41:21.974Z,10.600
2023-05-16T05:42:29.079Z,10.700
2023-05-16T05:43:34.521Z,11.600
2023-05-16T05:44:29.507Z,11.850
2023-05-16T05:45:36.486Z,11.200
2023-05-16T05:46:22.925Z,11.400
2023-05-16T05:47:27.358Z,10.700
2023-05-16T05:48:41.339Z,11.450
2023-05-16T05:49:31.345Z,10.900
2023-05-16T05:50:38.785Z,11.100
2023-05-16T05:51:31.818Z,11.050
2023-05-16T05:52:26.337Z,12.100
2023-05-16T05:53:25.487Z,10.900
2023-05-16T05:54:46.246Z,10.500
2023-05-16T05:55:59.298Z,11.100
2023-05-16T05:56:34.740Z,10.700
2023-05-16T05:57:20.081Z,11.100
2023-05-16T05:58:26.277Z,10.550
2023-05-16T05:59:30.224Z,11.100
2023-05-16T06:00:24.190Z,10.800
2023-05-16T06:02:04.534Z,9.800
2023-05-16T06:02:50.793Z,9.850
2023-05-16T06:03:38.977Z,10.100
2023-05-16T06:04:25.178Z,10.700
2023-05-16T06:05:44.176Z,11.000
2023-05-16T06:06:34.030Z,10.250
2023-05-16T06:07:28.955Z,10.000
2023-05-16T06:09:07.522Z,10.300
2023-05-16T06:09:21.255Z,10.600
2023-05-16T06:10:35.067Z,9.900
2023-05-16T06:11:27.054Z,10.700
2023-05-16T06:12:46.791Z,10.700
2023-05-16T06:13:39.127Z,10.900
2023-05-16T06:14:30.183Z,10.400
2023-05-16T06:15:28.126Z,10.600
2023-05-16T06:16:40.157Z,11.300
2023-05-16T06:17:44.797Z,10.050
2023-05-16T06:18:31.947Z,10.000
2023-05-16T06:19:49.849Z,10.150
2023-05-16T06:20:44.149Z,10.400
2023-05-16T06:21:38.706Z,10.300
2023-05-16T06:22:29.602Z,10.700
2023-05-16T06:23:21.517Z,10.100
2023-05-16T06:24:47.942Z,10.300
2023-05-16T06:25:33.999Z,10.900
2023-05-16T06:26:25.125Z,10.400
2023-05-16T06:27:36.653Z,10.350
2023-05-16T06:28:41.929Z,10.700
2023-05-16T06:29:28.871Z,10.400
2023-05-16T06:30:24.787Z,10.600
2023-05-16T06:31:49.908Z,11.400
2023-05-16T06:32:30.544Z,10.300
2023-05-16T06:33:22.069Z,11.350
2023-05-16T06:34:51.875Z,10.400
2023-05-16T06:35:45.539Z,11.300
2023-05-16T06:36:31.932Z,10.800
2023-05-16T06:37:21.888Z,10.600
2023-05-16T06:38:22.299Z,10.750
2023-05-16T06:39:38.269Z,10.400
2023-05-16T06:40:26.897Z,10.200
2023-05-16T06:41:56.816Z,9.950
2023-05-16T06:42:48.877Z,10.000
2023-05-16T06:43:27.730Z,8.900
2023-05-16T06:44:24.624Z,9.100
2023-05-16T06:45:26.241Z,9.600
2023-05-16T06:46:42.906Z,9.550
2023-05-16T06:47:28.828Z,9.400
2023-05-16T06:48:59.832Z,10.150
2023-05-16T06:49:31.788Z,10.300
2023-05-16T06:50:45.820Z,8.800
2023-05-16T06:51:24.693Z,10.300
2023-05-16T06:52:31.874Z,10.200
2023-05-16T06:53:23.530Z,10.200
2023-05-16T06:54:23.077Z,10.700
2023-05-16T06:55:35.768Z,10.300
2023-05-16T06:56:50.441Z,9.850
2023-05-16T06:57:41.713Z,10.800
2023-05-16T06:58:27.948Z,10.000
2023-05-16T06:59:34.404Z,10.900
2023-05-16T07:00:28.374Z,10.700
2023-05-16T07:01:21.761Z,9.900
2023-05-16T07:02:21.644Z,10.300
2023-05-16T07:04:00.824Z,10.900
2023-05-16T07:04:43.683Z,10.700
2023-05-16T07:05:29.310Z,10.100
2023-05-16T07:06:32.127Z,10.500
2023-05-16T07:07:32.260Z,9.700
2023-05-16T07:08:26.692Z,10.400
2023-05-16T07:09:24.068Z,9.850
2023-05-16T07:11:24.046Z,10.600
2023-05-16T07:12:33.681Z,9.600
2023-05-16T07:13:43.448Z,10.500
2023-05-16T07:14:37.709Z,9.900
2023-05-16T07:15:30.828Z,10.700
2023-05-16T07:16:22.531Z,9.600
2023-05-16T07:17:29.105Z,9.500
2023-05-16T07:18:43.839Z,10.200
2023-05-16T07:19:36.381Z,9.600
2023-05-16T07:20:23.885Z,9.200
2023-05-16T07:21:44.646Z,8.900
2023-05-16T07:22:22.585Z,9.050
2023-05-16T07:23:27.420Z,9.700
2023-05-16T07:24:46.755Z,9.900
2023-05-16T07:25:50.992Z,9.300
2023-05-16T07:26:40.343Z,9.100
2023-05-16T07:27:24.766Z,9.200
2023-05-16T07:28:27.844Z,9.200
2023-05-16T07:29:40.705Z,9.350
2023-05-16T07:30:31.267Z,9.700
2023-05-16T07:31:24.734Z,9.900
2023-05-16T07:32:56.462Z,9.500
2023-05-16T07:33:43.645Z,9.500
2023-05-16T07:34:32.761Z,9.100
2023-05-16T07:35:49.698Z,9.700
2023-05-16T07:36:42.773Z,9.450
2023-05-16T07:37:38.522Z,8.500
2023-05-16T07:38:27.124Z,9.200
2023-05-16T07:39:22.807Z,9.000
2023-05-16T07:40:45.744Z,9.050
2023-05-16T07:41:32.706Z,8.500
2023-05-16T07:42:53.274Z,9.600
2023-05-16T07:43:46.561Z,9.400
2023-05-16T07:44:40.518Z,9.600
2023-05-16T07:45:30.697Z,9.300
2023-05-16T07:46:21.948Z,9.500
2023-05-16T07:47:49.325Z,9.500
2023-05-16T07:48:36.182Z,8.900
2023-05-16T07:49:21.088Z,8.900
2023-05-16T07:50:19.734Z,9.300
2023-05-16T07:51:34.306Z,8.700
2023-05-16T07:52:28.921Z,9.600
2023-05-16T07:53:26.618Z,9.500
2023-05-16T07:54:22.217Z,9.700
2023-05-16T07:55:39.366Z,8.800
2023-05-16T07:56:24.692Z,9.100
2023-05-16T07:57:39.504Z,9.150
2023-05-16T07:58:48.396Z,9.600
2023-05-16T07:59:33.271Z,9.100
2023-05-16T08:00:29.512Z,8.850
2023-05-16T08:02:32.294Z,9.250
2023-05-16T08:03:27.258Z,9.800
2023-05-16T08:04:59.247Z,9.000
2023-05-16T08:05:49.525Z,8.600
2023-05-16T08:06:36.528Z,9.900
2023-05-16T08:07:23.550Z,8.800
2023-05-16T08:08:26.586Z,8.800
2023-05-16T08:09:19.599Z,9.400
2023-05-16T08:10:30.103Z,9.500
2023-05-16T08:12:00.670Z,9.250
2023-05-16T08:12:53.520Z,8.400
2023-05-16T08:13:28.546Z,9.000
2023-05-16T08:14:28.535Z,9.200
2023-05-16T08:15:30.474Z,8.600
2023-05-16T08:16:25.803Z,8.950
2023-05-16T08:17:20.319Z,8.800
2023-05-16T08:18:22.366Z,8.500
2023-05-16T08:19:31.915Z,9.150
2023-05-16T08:20:42.265Z,9.100
2023-05-16T08:21:29.420Z,9.900
2023-05-16T08:22:34.914Z,8.900
2023-05-16T08:23:27.826Z,8.700
2023-05-16T08:24:23.238Z,7.800
2023-05-16T08:25:23.339Z,8.600
2023-05-16T08:26:51.330Z,8.300
2023-05-16T08:27:54.480Z,8.450
2023-05-16T08:28:33.153Z,8.000
2023-05-16T08:29:38.516Z,8.100
2023-05-16T08:30:31.599Z,8.100
2023-05-16T08:31:26.605Z,7.500
2023-05-16T08:32:23.407Z,8.400
2023-05-16T08:34:01.499Z,8.100
2023-05-16T08:34:48.719Z,8.000
2023-05-16T08:35:22.394Z,7.800
2023-05-16T08:36:21.194Z,7.850
2023-05-16T08:37:35.705Z,8.000
2023-05-16T08:38:30.349Z,7.950
2023-05-16T08:39:21.536Z,7.700
2023-05-16T08:41:25.685Z,7.600
2023-05-16T08:42:40.347Z,7.800
2023-05-16T08:43:25.617Z,8.100
2023-05-16T08:44:39.446Z,7.000
2023-05-16T08:45:34.310Z,7.200
2023-05-16T08:46:25.665Z,7.000
2023-05-16T08:47:23.887Z,7.200
2023-05-16T08:48:55.299Z,7.100
2023-05-16T08:49:41.268Z,7.400
2023-05-16T08:50:29.299Z,6.900
2023-05-16T08:51:51.342Z,6.800
2023-05-16T08:52:24.237Z,6.950
2023-05-16T08:53:31.911Z,7.400
2023-05-16T08:54:26.766Z,7.200
2023-05-16T08:55:20.382Z,7.200
2023-05-16T08:56:45.071Z,8.050
2023-05-16T08:57:31.047Z,8.200
2023-05-16T08:58:29.319Z,7.900
2023-05-16T08:59:47.223Z,7.550
2023-05-16T09:00:35.322Z,7.400
2023-05-16T09:01:28.304Z,7.300
2023-05-16T09:02:19.902Z,7.200
2023-05-16T09:03:19.839Z,7.100
2023-05-16T09:04:35.332Z,7.600
2023-05-16T09:05:20.272Z,7.850
2023-05-16T09:06:46.097Z,7.300
2023-05-16T09:07:39.184Z,7.400
2023-05-16T09:08:30.626Z,8.300
2023-05-16T09:09:25.632Z,7.500
2023-05-16T09:10:21.936Z,7.750
2023-05-16T09:11:37.266Z,7.800
2023-05-16T09:12:26.002Z,7.900
2023-05-16T09:13:50.892Z,7.300
2023-05-16T09:14:48.095Z,7.400
2023-05-16T09:15:33.083Z,7.900
2023-05-16T09:16:27.729Z,7.300
2023-05-16T09:17:32.011Z,7.100
2023-05-16T09:18:39.354Z,7.200
2023-05-16T09:19:26.462Z,7.100
2023-05-16T09:20:22.330Z,7.050
2023-05-16T09:21:35.951Z,7.400
2023-05-16T09:22:36.213Z,7.300
2023-05-16T09:23:23.196Z,7.000
2023-05-16T09:24:24.915Z,7.150
2023-05-16T09:25:32.471Z,6.900
2023-05-16T09:26:30.340Z,7.300
2023-05-16T09:27:41.629Z,7.300
2023-05-16T09:28:57.113Z,6.300
2023-05-16T09:29:39.143Z,6.300
2023-05-16T09:30:26.321Z,6.800
2023-05-16T09:31:28.874Z,7.000
2023-05-16T09:32:23.793Z,6.600
2023-05-16T09:33:20.454Z,7.100
2023-05-16T09:34:58.937Z,7.400
2023-05-16T09:35:54.971Z,6.800
2023-05-16T09:36:43.766Z,6.700
2023-05-16T09:37:24.943Z,7.200
2023-05-16T09:38:32.723Z,7.800
2023-05-16T09:39:25.996Z,7.000
2023-05-16T09:40:24.896Z,6.900
2023-05-16T09:41:23.062Z,6.750
2023-05-16T09:42:58.890Z,6.700
2023-05-16T09:43:30.402Z,7.300
2023-05-16T09:44:32.671Z,7.500
2023-05-16T09:45:36.987Z,8.000
2023-05-16T09:46:30.671Z,8.000
2023-05-16T09:47:22.556Z,6.900
2023-05-16T09:48:21.785Z,7.450
2023-05-16T09:49:33.621Z,7.000
2023-05-16T09:50:49.059Z,6.950
2023-05-16T09:51:34.783Z,6.900
2023-05-16T09:52:21.981Z,7.000
2023-05-16T09:53:33.773Z,6.600
2023-05-16T09:54:27.709Z,7.200
2023-05-16T09:55:20.830Z,7.300
2023-05-16T09:56:53.449Z,6.600
2023-05-16T09:57:49.541Z,6.550
2023-05-16T09:58:37.874Z,6.700
2023-05-16T09:59:23.383Z,6.900
2023-05-16T10:00:31.769Z,6.850
2023-05-16T10:01:33.632Z,7.300
2023-05-16T10:02:26.623Z,7.700
2023-05-16T10:03:22.877Z,7.200
2023-05-16T10:04:53.803Z,7.000
2023-05-16T10:05:40.689Z,5.900
2023-05-16T10:06:27.959Z,6.400
2023-05-16T10:07:42.465Z,7.000
2023-05-16T10:08:35.726Z,6.750
2023-05-16T10:09:29.695Z,6.600
2023-05-16T10:10:21.476Z,7.200
2023-05-16T10:11:20.605Z,6.700
2023-05-16T10:12:42.431Z,6.650
2023-05-16T10:13:30.651Z,6.400
2023-05-16T10:14:47.673Z,6.500
2023-05-16T10:15:39.613Z,6.300
2023-05-16T10:16:20.669Z,6.500
2023-05-16T10:17:26.104Z,6.300
2023-05-16T10:18:24.490Z,6.800
2023-05-16T10:19:45.499Z,6.600
2023-05-16T10:20:33.610Z,6.400
2023-05-16T10:21:51.461Z,6.500
2023-05-16T10:22:26.621Z,6.400
2023-05-16T10:23:45.497Z,6.300
2023-05-16T10:24:30.715Z,6.400
2023-05-16T10:25:21.480Z,5.900
2023-05-16T10:26:22.534Z,6.300
2023-05-16T10:27:36.615Z,5.600
2023-05-16T10:28:23.186Z,6.500
2023-05-16T10:29:54.641Z,6.200
2023-05-16T10:30:41.540Z,6.300
2023-05-16T10:31:34.575Z,6.300
2023-05-16T10:32:26.434Z,6.100
2023-05-16T10:33:21.750Z,6.050
2023-05-16T10:34:36.600Z,5.900
2023-05-16T10:35:26.653Z,5.600
2023-05-16T10:36:51.508Z,5.900
2023-05-16T10:37:44.562Z,5.700
2023-05-16T10:38:34.002Z,6.200
2023-05-16T10:39:21.642Z,6.500
2023-05-16T10:40:23.437Z,5.700
2023-05-16T10:41:23.092Z,6.200
2023-05-16T10:42:29.242Z,5.600
2023-05-16T10:43:57.192Z,5.700
2023-05-16T10:45:01.919Z,5.800
2023-05-16T10:45:33.639Z,5.500
2023-05-16T10:46:25.566Z,5.900
2023-05-16T10:47:26.517Z,6.200
2023-05-16T10:48:21.093Z,5.400
2023-05-16T10:49:21.493Z,5.300
2023-05-16T10:50:23.676Z,5.100
2023-05-16T10:51:38.494Z,4.600
2023-05-16T10:52:40.370Z,4.700
2023-05-16T10:53:28.659Z,5.100
2023-05-16T10:54:31.743Z,4.900
2023-05-16T10:55:24.145Z,4.700
2023-05-16T10:56:25.516Z,4.800
2023-05-16T10:57:22.490Z,4.900
2023-05-16T10:58:57.512Z,4.650
2023-05-16T10:59:45.397Z,4.000
2023-05-16T11:00:30.883Z,4.000
2023-05-16T11:01:21.828Z,4.500
2023-05-16T11:02:27.755Z,4.050
2023-05-16T11:03:22.411Z,3.800
2023-05-16T11:04:24.508Z,3.700
2023-05-16T11:06:01.302Z,4.000
2023-05-16T11:06:46.341Z,4.000
2023-05-16T11:07:27.305Z,4.300
2023-05-16T11:08:38.248Z,3.900
2023-05-16T11:09:32.609Z,3.900
2023-05-16T11:10:26.192Z,4.000
2023-05-16T11:11:27.179Z,4.300
2023-05-16T11:13:30.300Z,4.000
2023-05-16T11:14:37.381Z,4.300
2023-05-16T11:15:25.487Z,4.200
2023-05-16T11:16:37.324Z,3.900
2023-05-16T11:17:28.920Z,4.000
2023-05-16T11:18:25.077Z,3.900
2023-05-16T11:19:23.327Z,4.200
2023-05-16T11:20:53.143Z,4.100
2023-05-16T11:21:40.154Z,3.700
2023-05-16T11:22:27.049Z,4.100
2023-05-16T11:23:41.256Z,3.650
2023-05-16T11:24:29.632Z,3.600
2023-05-16T11:25:27.569Z,4.000
2023-05-16T11:26:22.066Z,3.200
2023-05-16T11:27:20.270Z,4.050
2023-05-16T11:28:42.787Z,3.500
2023-05-16T11:29:21.048Z,3.900
2023-05-16T11:30:34.006Z,3.600
2023-05-16T11:31:38.135Z,3.400
2023-05-16T11:32:30.667Z,3.300
2023-05-16T11:33:25.611Z,3.300
2023-05-16T11:34:24.389Z,3.500
2023-05-16T11:35:24.751Z,3.950
2023-05-16T11:36:31.248Z,3.600
2023-05-16T11:37:52.037Z,3.700
2023-05-16T11:38:42.152Z,3.750
2023-05-16T11:39:35.284Z,3.800
2023-05-16T11:40:26.652Z,3.400
2023-05-16T11:41:19.806Z,3.400
2023-05-16T11:42:21.548Z,3.850
2023-05-16T11:43:34.424Z,4.100
2023-05-16T11:44:21.222Z,3.750
2023-05-16T11:45:46.637Z,4.000
2023-05-16T11:46:23.557Z,3.800
2023-05-16T11:47:32.003Z,3.700
2023-05-16T11:48:35.820Z,3.300
2023-05-16T11:49:28.004Z,3.650
2023-05-16T11:50:38.904Z,3.550
2023-05-16T11:51:24.138Z,3.500
2023-05-16T11:52:28.694Z,3.450
2023-05-16T11:53:45.931Z,3.250
2023-05-16T11:54:35.922Z,3.500
2023-05-16T11:55:41.258Z,3.500
2023-05-16T11:56:20.960Z,3.500
2023-05-16T11:57:24.289Z,3.250
2023-05-16T11:58:26.963Z,3.200
2023-05-16T11:59:45.850Z,3.050
2023-05-16T12:00:49.943Z,3.000
2023-05-16T12:01:40.029Z,2.900
2023-05-16T12:02:21.872Z,3.000
2023-05-16T12:03:26.661Z,3.000
2023-05-16T12:04:29.229Z,3.000
2023-05-16T12:05:20.366Z,3.000
2023-05-16T12:06:58.081Z,3.350
2023-05-16T12:07:52.947Z,3.700
2023-05-16T12:08:40.018Z,3.400
2023-05-16T12:09:30.038Z,3.500
2023-05-16T12:10:28.822Z,3.300
2023-05-16T12:11:22.818Z,3.300
2023-05-16T12:12:24.597Z,3.650
2023-05-16T12:13:20.837Z,3.200
2023-05-16T12:14:20.143Z,3.000
2023-05-16T12:15:35.507Z,3.300
2023-05-16T12:16:29.982Z,3.300
2023-05-16T12:17:32.953Z,2.900
2023-05-16T12:18:25.928Z,2.850
2023-05-16T12:19:28.848Z,2.800
2023-05-16T12:20:25.206Z,2.800
2023-05-16T12:21:39.715Z,3.000
2023-05-16T12:22:45.893Z,2.900
2023-05-16T12:23:32.868Z,3.200
2023-05-16T12:24:37.796Z,2.950
2023-05-16T12:25:29.828Z,3.000
2023-05-16T12:26:23.846Z,2.950
2023-05-16T12:27:27.120Z,2.900
2023-05-16T12:28:57.494Z,3.100
2023-05-16T12:29:48.966Z,2.850
2023-05-16T12:30:35.860Z,2.700
2023-05-16T12:31:31.509Z,2.800
2023-05-16T12:32:36.641Z,2.500
2023-05-16T12:33:27.569Z,2.700
2023-05-16T12:34:20.826Z,2.300
2023-05-16T12:35:23.374Z,2.400
2023-05-16T12:36:51.942Z,2.800
2023-05-16T12:37:27.746Z,2.400
2023-05-16T12:38:24.210Z,2.450
2023-05-16T12:39:37.687Z,2.500
2023-05-16T12:40:31.896Z,2.350
2023-05-16T12:41:23.260Z,2.200
2023-05-16T12:42:27.590Z,2.000
2023-05-16T12:43:20.499Z,2.100
2023-05-16T12:44:42.903Z,2.400
2023-05-16T12:45:29.810Z,2.400
2023-05-16T12:46:42.981Z,2.250
2023-05-16T12:47:35.695Z,2.500
2023-05-16T12:48:28.935Z,2.700
2023-05-16T12:49:24.211Z,2.600
2023-05-16T12:50:25.527Z,2.300
2023-05-16T12:51:46.002Z,2.650
2023-05-16T12:52:31.983Z,2.400
2023-05-16T12:53:57.590Z,2.450
2023-05-16T12:54:31.188Z,2.600
2023-05-16T12:55:33.028Z,2.300
2023-05-16T12:56:27.031Z,2.600
2023-05-16T12:57:28.681Z,2.600
2023-05-16T12:58:22.571Z,2.500
2023-05-16T12:59:23.011Z,2.800
2023-05-16T13:00:20.452Z,2.500
2023-05-16T13:01:49.099Z,2.500
2023-05-16T13:02:37.183Z,2.450
2023-05-16T13:03:30.133Z,2.500
2023-05-16T13:04:21.509Z,2.600
2023-05-16T13:05:26.376Z,3.100